Hlavní strana
METAR-TAF:

METAR-TAF

Letiště :

Letiště Hévíz

Hévíz, Maďarsko

zeměpisná šířka: 46-41-11N, zeměpisná délka: 017-09-33E, výška: 124 m

Aktuální stav počasí

Zpráva byla vytvořena před 40 minutami, v 15:45 UTC
Jižní vítr 7 kt, proměnlivý mezi jihovýchodním a jihojihozápadním
Teplota 25°C
Vlhkost vzduchu 39%
Tlak 1016 hPa
Viditelnost 10 km a více
Žádná oblačnost pod 1500 m, nevyskytují se cumulonimby.

METAR: LHSM 271545Z AUTO 18007KT 140V200 CAVOK 25/10 Q1016

Čas: 18:25 (16:25 UTC)

Předpověď počasí

Zpráva byla vytvořena před 5 hodinami a 10 minutami, v 11:15 UTC
Předpověď platná od 27 v 12 UTC do 27 v 21 UTC
Jihojihovýchodní vítr 8 kt
Viditelnost 10 km a více
Žádná oblačnost pod 1500 m, nevyskytují se cumulonimby.

TAF: LHSM 271115Z 2712/2721 15008KT CAVOK

Stav a předpovědi počasí z více než 4 000 letišť (zprávy METAR a TAF).

Červené a žluté tečky na mapě představují dostupné meteorologické stanice.

Když kurzor umístíte na tečku, zobrazí se název stanice.

Pak kliknutím zobrazíte stav a předpověď počasí.

Chcete-li změnit mapu, kliknutím na zelené tlačítko se znaménkem +mapu přiblížíte, kliknutím na zelené tlačítko se znaménkem – mapu oddálíte a kliknutím na zelené šipky přejdete na sousední mapy.


METAR-TAF: